Time;durP1;ratioP1;P1;durP2;ratioP2;P2;SDS_P1;SDS_P2;PMS_P1;PMS_P2;Temp;Humidity;BMP_temperature;BMP_pressure;BME280_temperature;BME280_humidity;BME280_pressure;Samples;Min_cycle;Max_cycle;Signal;HPM_P1;HPM_P2
2022/05/24 00:01:39;;;;;;;16.97;13.20;;;;;;;-145.18;100.00;60484.78;5040997;28;20028;-68
2022/05/24 00:04:04;;;;;;;18.67;12.90;;;;;;;-145.18;100.00;60484.78;5033649;28;20021;-68
2022/05/24 00:06:31;;;;;;;20.63;13.80;;;;;;;-145.18;100.00;60484.78;5041533;28;20025;-68
2022/05/24 00:08:57;;;;;;;15.73;11.37;;;;;;;-145.18;100.00;60484.78;5044178;28;20029;-68
2022/05/24 00:11:22;;;;;;;14.90;10.63;;;;;;;-145.18;100.00;60484.78;5033130;28;20366;-68
2022/05/24 00:13:48;;;;;;;15.77;11.57;;;;;;;-145.18;100.00;60484.78;5031065;28;21497;-68
2022/05/24 00:16:13;;;;;;;15.20;10.80;;;;;;;-145.18;100.00;60484.78;5032873;28;20058;-68
2022/05/24 00:18:39;;;;;;;15.40;10.23;;;;;;;-145.18;100.00;60484.78;5038221;28;20048;-68
2022/05/24 00:21:05;;;;;;;18.03;12.00;;;;;;;-145.18;100.00;60484.78;5035880;28;20069;-68
2022/05/24 00:23:32;;;;;;;15.00;9.57;;;;;;;-145.18;100.00;60484.78;5031466;28;20025;-68
2022/05/24 00:26:06;;;;;;;17.93;10.97;;;;;;;-145.18;100.00;60484.78;5032832;28;20037;-67
2022/05/24 00:28:34;;;;;;;18.63;13.27;;;;;;;-145.18;100.00;60484.78;5034870;28;20036;-68
2022/05/24 00:31:00;;;;;;;17.90;11.23;;;;;;;-145.18;100.00;60484.78;5033445;28;20029;-68
2022/05/24 00:33:26;;;;;;;19.53;13.93;;;;;;;-145.18;100.00;60484.78;5034745;28;20105;-68
2022/05/24 00:35:52;;;;;;;23.07;14.07;;;;;;;-145.18;100.00;60484.78;5030059;28;20032;-68
2022/05/24 00:38:26;;;;;;;20.97;14.70;;;;;;;-145.18;100.00;60484.78;5036563;28;20294;-68
2022/05/24 00:41:13;;;;;;;21.60;15.83;;;;;;;-145.18;100.00;60484.78;5040349;28;20040;-68
2022/05/24 00:43:45;;;;;;;17.93;11.97;;;;;;;-145.18;100.00;60484.78;5033037;28;20025;-68
2022/05/24 00:46:22;;;;;;;20.10;15.45;;;;;;;-145.18;100.00;60484.78;5039787;28;20036;-68
2022/05/24 00:49:20;;;;;;;17.50;13.33;;;;;;;-145.18;100.00;60484.78;5035494;28;20111;-68
2022/05/24 00:51:54;;;;;;;20.47;15.17;;;;;;;-145.18;100.00;60484.78;5035661;28;20159;-68
2022/05/24 00:54:19;;;;;;;17.57;13.10;;;;;;;-145.18;100.00;60484.78;5034894;28;20036;-68
2022/05/24 00:57:04;;;;;;;21.50;15.27;;;;;;;-145.18;100.00;60484.78;5035780;28;20017;-68
2022/05/24 00:59:45;;;;;;;21.13;15.80;;;;;;;-145.18;100.00;60484.78;5031663;28;20033;-67
2022/05/24 01:02:11;;;;;;;16.92;12.68;;;;;;;-145.18;100.00;60484.78;5032382;28;20025;-68
2022/05/24 01:04:37;;;;;;;14.00;10.47;;;;;;;-145.18;100.00;60484.78;5034422;28;20032;-68
2022/05/24 01:07:03;;;;;;;16.07;11.10;;;;;;;-145.18;100.00;60484.78;5032569;28;20430;-68
2022/05/24 01:09:36;;;;;;;13.60;10.63;;;;;;;-145.18;100.00;60484.78;5040085;28;20353;-68
2022/05/24 01:12:08;;;;;;;13.97;11.10;;;;;;;-145.18;100.00;60484.78;5030992;28;20040;-68
2022/05/24 01:14:35;;;;;;;14.23;9.53;;;;;;;-145.18;100.00;60484.78;5035906;28;20450;-68
2022/05/24 01:17:02;;;;;;;12.03;9.03;;;;;;;-145.18;100.00;60484.78;5037050;28;20040;-68
2022/05/24 01:19:35;;;;;;;14.10;9.13;;;;;;;-145.18;100.00;60484.78;5040096;28;20028;-68
2022/05/24 01:22:11;;;;;;;12.40;8.40;;;;;;;-145.18;100.00;60484.78;5041442;28;20048;-68
2022/05/24 01:25:00;;;;;;;11.10;7.47;;;;;;;-145.18;100.00;60484.78;5041811;28;20519;-68
2022/05/24 01:27:25;;;;;;;11.67;7.67;;;;;;;-145.18;100.00;60484.78;5043885;28;20025;-68
2022/05/24 01:29:51;;;;;;;12.50;8.97;;;;;;;-145.18;100.00;60484.78;5038416;28;20708;-68
2022/05/24 01:37:44;;;;;;;12.30;9.47;;;;;;;-145.18;100.00;60484.78;5036831;28;20150;-68
2022/05/24 01:40:10;;;;;;;13.97;9.00;;;;;;;-145.18;100.00;60484.78;5039459;28;20025;-67
2022/05/24 01:42:35;;;;;;;12.80;8.20;;;;;;;-145.18;100.00;60484.78;5039557;28;20076;-68
2022/05/24 01:45:07;;;;;;;11.80;8.70;;;;;;;-145.18;100.00;60484.78;5039399;28;20245;-68
2022/05/24 01:47:34;;;;;;;12.25;8.48;;;;;;;-145.18;100.00;60484.78;5034303;28;20040;-68
2022/05/24 01:50:03;;;;;;;12.37;8.77;;;;;;;-145.18;100.00;60484.78;5035616;28;20034;-68
2022/05/24 01:52:36;;;;;;;14.33;9.10;;;;;;;-145.18;100.00;60484.78;5040674;28;20354;-68
2022/05/24 01:55:08;;;;;;;14.90;10.07;;;;;;;-145.18;100.00;60484.78;5032943;28;20501;-68
2022/05/24 01:57:39;;;;;;;12.57;8.73;;;;;;;-145.18;100.00;60484.78;5030880;28;20040;-67
2022/05/24 02:00:08;;;;;;;14.27;9.20;;;;;;;-145.18;100.00;60484.78;5033720;28;20025;-68
2022/05/24 02:02:33;;;;;;;13.67;9.43;;;;;;;-145.18;100.00;60484.78;5033913;28;20068;-68
2022/05/24 02:04:59;;;;;;;14.37;9.43;;;;;;;-145.18;100.00;60484.78;5040818;28;20061;-68
2022/05/24 02:07:25;;;;;;;14.80;8.77;;;;;;;-145.18;100.00;60484.78;5032375;28;20101;-68
2022/05/24 02:09:55;;;;;;;13.33;9.00;;;;;;;-145.18;100.00;60484.78;5037026;28;20453;-68
2022/05/24 02:12:44;;;;;;;13.60;10.00;;;;;;;-145.18;100.00;60484.78;5033066;28;20026;-68
2022/05/24 02:15:11;;;;;;;14.57;9.97;;;;;;;-145.18;100.00;60484.78;5044451;28;20037;-67
2022/05/24 02:17:52;;;;;;;15.53;10.97;;;;;;;-145.18;100.00;60484.78;5044922;28;20035;-68
2022/05/24 02:20:24;;;;;;;13.27;10.33;;;;;;;-145.18;100.00;60484.78;5037799;28;20037;-68
2022/05/24 02:22:49;;;;;;;15.13;10.40;;;;;;;-145.18;100.00;60484.78;5037453;28;20025;-68
2022/05/24 02:25:36;;;;;;;14.33;9.93;;;;;;;-145.18;100.00;60484.78;5037569;28;20668;-67
2022/05/24 02:28:03;;;;;;;12.03;8.37;;;;;;;-145.18;100.00;60484.78;5045036;28;20029;-68
2022/05/24 02:30:30;;;;;;;13.10;8.23;;;;;;;-145.18;100.00;60484.78;5046585;28;20033;-68
2022/05/24 02:32:56;;;;;;;13.13;8.27;;;;;;;-145.18;100.00;60484.78;5039070;28;20025;-68
2022/05/24 02:35:22;;;;;;;12.47;7.77;;;;;;;-145.18;100.00;60484.78;5042523;28;20562;-68
2022/05/24 02:37:47;;;;;;;11.23;6.67;;;;;;;-145.18;100.00;60484.78;5039325;28;20821;-68
2022/05/24 02:42:57;;;;;;;10.13;6.80;;;;;;;-145.18;100.00;60484.78;5036620;28;20040;-68
2022/05/24 02:45:23;;;;;;;10.63;6.90;;;;;;;-145.18;100.00;60484.78;5039366;28;20021;-68
2022/05/24 02:47:49;;;;;;;12.43;7.00;;;;;;;-145.18;100.00;60484.78;5041702;28;20029;-68
2022/05/24 02:50:14;;;;;;;10.63;7.20;;;;;;;-145.18;100.00;60484.78;5042302;28;20457;-68
2022/05/24 02:52:40;;;;;;;11.60;7.03;;;;;;;-145.18;100.00;60484.78;5037108;28;20018;-68
2022/05/24 02:55:07;;;;;;;9.80;7.23;;;;;;;-145.18;100.00;60484.78;5033243;28;20099;-68
2022/05/24 02:57:33;;;;;;;12.07;6.70;;;;;;;-145.18;100.00;60484.78;5034446;28;20029;-68
2022/05/24 02:59:59;;;;;;;11.00;7.30;;;;;;;-145.18;100.00;60484.78;5034030;28;20036;-68
2022/05/24 03:02:24;;;;;;;12.83;6.77;;;;;;;-145.18;100.00;60484.78;5040184;28;20692;-68
2022/05/24 03:04:49;;;;;;;11.13;6.70;;;;;;;-145.18;100.00;60484.78;5047574;28;20025;-68
2022/05/24 03:09:59;;;;;;;10.20;6.80;;;;;;;-145.18;100.00;60484.78;5048418;28;20036;-68
2022/05/24 03:15:09;;;;;;;13.03;7.70;;;;;;;-145.18;100.00;60484.78;5042929;28;20615;-68
2022/05/24 03:17:34;;;;;;;11.03;6.57;;;;;;;-145.18;100.00;60484.78;5043264;28;20799;-68
2022/05/24 03:20:00;;;;;;;11.17;7.00;;;;;;;-145.18;100.00;60484.78;5046583;28;20103;-68
2022/05/24 03:22:25;;;;;;;12.90;6.87;;;;;;;-145.18;100.00;60484.78;5036888;28;20029;-68
2022/05/24 03:24:50;;;;;;;12.17;7.30;;;;;;;-145.18;100.00;60484.78;5045290;28;20660;-68
2022/05/24 03:27:17;;;;;;;11.17;7.13;;;;;;;-145.18;100.00;60484.78;5045974;28;20028;-68
2022/05/24 03:29:44;;;;;;;11.27;7.17;;;;;;;-145.18;100.00;60484.78;5031904;28;20029;-68
2022/05/24 03:32:12;;;;;;;13.53;7.33;;;;;;;-145.18;100.00;60484.78;5036053;28;20034;-68
2022/05/24 03:34:41;;;;;;;13.00;7.43;;;;;;;-145.18;100.00;60484.78;5044794;28;20037;-68
2022/05/24 03:37:08;;;;;;;12.13;7.17;;;;;;;-145.18;100.00;60484.78;5044666;28;20515;-68
2022/05/24 03:39:34;;;;;;;12.87;7.60;;;;;;;-145.18;100.00;60484.78;5048194;28;20119;-69
2022/05/24 03:42:00;;;;;;;12.30;7.80;;;;;;;-145.18;100.00;60484.78;5047742;28;20460;-68
2022/05/24 03:44:26;;;;;;;13.00;7.90;;;;;;;-145.18;100.00;60484.78;5041551;28;20211;-68
2022/05/24 03:46:52;;;;;;;13.40;8.17;;;;;;;-145.18;100.00;60484.78;5042926;28;20484;-68
2022/05/24 03:49:18;;;;;;;14.23;9.13;;;;;;;-145.18;100.00;60484.78;5047869;28;20128;-68
2022/05/24 03:51:43;;;;;;;14.77;9.57;;;;;;;-145.18;100.00;60484.78;5047938;28;20108;-68
2022/05/24 03:54:09;;;;;;;17.03;10.10;;;;;;;-145.18;100.00;60484.78;5044162;28;20068;-68
2022/05/24 03:56:35;;;;;;;19.10;9.73;;;;;;;-145.18;100.00;60484.78;5048214;28;20040;-68
2022/05/24 03:59:01;;;;;;;16.50;10.53;;;;;;;-145.18;100.00;60484.78;5048311;28;20109;-68
2022/05/24 04:01:26;;;;;;;18.43;10.53;;;;;;;-145.18;100.00;60484.78;5045946;28;20203;-68
2022/05/24 04:03:52;;;;;;;17.87;11.90;;;;;;;-145.18;100.00;60484.78;5044490;28;20044;-68
2022/05/24 04:06:17;;;;;;;18.07;11.73;;;;;;;-145.18;100.00;60484.78;5033533;28;20491;-68
2022/05/24 04:08:43;;;;;;;18.57;12.37;;;;;;;-145.18;100.00;60484.78;5035920;28;20034;-68
2022/05/24 04:11:11;;;;;;;23.87;12.83;;;;;;;-145.18;100.00;60484.78;5043764;28;20060;-68
2022/05/24 04:13:38;;;;;;;22.53;13.73;;;;;;;-145.18;100.00;60484.78;5038710;28;20029;-68
2022/05/24 04:16:04;;;;;;;19.60;13.40;;;;;;;-145.18;100.00;60484.78;5039116;28;20033;-68
2022/05/24 04:18:30;;;;;;;22.00;13.57;;;;;;;-145.18;100.00;60484.78;5044844;28;20036;-68
2022/05/24 04:20:56;;;;;;;22.10;14.00;;;;;;;-145.18;100.00;60484.78;5038497;28;20033;-68
2022/05/24 04:23:23;;;;;;;23.27;15.37;;;;;;;-145.18;100.00;60484.78;5036008;28;20040;-69
2022/05/24 04:25:49;;;;;;;24.00;15.57;;;;;;;-145.18;100.00;60484.78;5045326;28;20485;-68
2022/05/24 04:28:18;;;;;;;24.20;15.00;;;;;;;-145.18;100.00;60484.78;5040422;28;20112;-68
2022/05/24 04:30:46;;;;;;;21.43;15.30;;;;;;;-145.18;100.00;60484.78;5037677;28;20484;-68
2022/05/24 04:33:11;;;;;;;24.33;15.80;;;;;;;-145.18;100.00;60484.78;5034792;28;20155;-68
2022/05/24 04:35:37;;;;;;;23.40;16.23;;;;;;;-145.18;100.00;60484.78;5043531;28;20140;-68
2022/05/24 04:38:02;;;;;;;23.50;15.93;;;;;;;-145.18;100.00;60484.78;5032960;28;20068;-68
2022/05/24 04:43:11;;;;;;;24.13;16.70;;;;;;;-145.18;100.00;60484.78;5030441;28;20125;-68
2022/05/24 04:45:37;;;;;;;25.70;17.17;;;;;;;-145.18;100.00;60484.78;5044505;28;20116;-68
2022/05/24 04:48:03;;;;;;;24.13;16.83;;;;;;;-145.18;100.00;60484.78;5037008;28;20125;-68
2022/05/24 04:50:28;;;;;;;24.80;17.87;;;;;;;-145.18;100.00;60484.78;5039550;28;20039;-68
2022/05/24 04:52:54;;;;;;;26.60;17.90;;;;;;;-145.18;100.00;60484.78;5036443;28;20037;-68
2022/05/24 04:55:19;;;;;;;29.00;19.00;;;;;;;-145.18;100.00;60484.78;5035096;28;20041;-68
2022/05/24 04:57:44;;;;;;;26.87;17.60;;;;;;;-145.18;100.00;60484.78;5031076;28;20466;-68
2022/05/24 05:00:14;;;;;;;27.80;19.07;;;;;;;-145.18;100.00;60484.78;5032999;28;20525;-68
2022/05/24 05:02:40;;;;;;;27.97;18.93;;;;;;;-145.18;100.00;60484.78;5031205;28;20037;-68
2022/05/24 05:05:06;;;;;;;30.50;20.13;;;;;;;-145.18;100.00;60484.78;5040916;28;20059;-68
2022/05/24 05:07:32;;;;;;;28.47;18.60;;;;;;;-145.18;100.00;60484.78;5038606;28;20044;-68
2022/05/24 05:09:58;;;;;;;30.27;20.90;;;;;;;-145.18;100.00;60484.78;5035873;28;20107;-68
2022/05/24 05:12:26;;;;;;;30.50;20.63;;;;;;;-145.18;100.00;60484.78;5038000;28;20029;-68
2022/05/24 05:14:52;;;;;;;29.88;20.45;;;;;;;-145.18;100.00;60484.78;5037172;28;20624;-68
2022/05/24 05:17:18;;;;;;;33.27;20.93;;;;;;;-145.18;100.00;60484.78;5034514;28;20072;-68
2022/05/24 05:19:45;;;;;;;32.43;21.30;;;;;;;-145.18;100.00;60484.78;5039329;28;20545;-68
2022/05/24 05:22:11;;;;;;;33.03;22.00;;;;;;;-145.18;100.00;60484.78;5038854;28;20033;-68
2022/05/24 05:24:36;;;;;;;35.33;22.13;;;;;;;-145.18;100.00;60484.78;5038184;28;20123;-68
2022/05/24 05:27:03;;;;;;;32.50;21.10;;;;;;;-145.18;100.00;60484.78;5037758;28;20045;-68
2022/05/24 05:32:20;;;;;;;34.10;20.37;;;;;;;-145.18;100.00;60484.78;5033464;28;20060;-68
2022/05/24 05:34:47;;;;;;;32.20;21.87;;;;;;;-145.18;100.00;60484.78;5034489;28;20113;-68
2022/05/24 05:37:13;;;;;;;34.55;22.48;;;;;;;-145.18;100.00;60484.78;5040390;28;20045;-68
2022/05/24 05:39:38;;;;;;;31.85;21.30;;;;;;;-145.18;100.00;60484.78;5044916;28;20045;-68
2022/05/24 05:42:05;;;;;;;34.67;22.48;;;;;;;-145.18;100.00;60484.78;5035128;28;20029;-68
2022/05/24 05:44:30;;;;;;;33.28;22.08;;;;;;;-145.18;100.00;60484.78;5036901;28;20174;-68
2022/05/24 05:46:56;;;;;;;32.60;21.60;;;;;;;-145.18;100.00;60484.78;5032235;28;20484;-69
2022/05/24 05:49:21;;;;;;;33.08;21.73;;;;;;;-145.18;100.00;60484.78;5042652;28;20044;-68
2022/05/24 05:51:47;;;;;;;30.98;21.90;;;;;;;-145.18;100.00;60484.78;5038641;28;20029;-68
2022/05/24 05:54:12;;;;;;;30.75;20.88;;;;;;;-145.18;100.00;60484.78;5036802;28;20033;-68
2022/05/24 05:56:40;;;;;;;31.42;20.95;;;;;;;-145.18;100.00;60484.78;5045489;28;20035;-68
2022/05/24 05:59:06;;;;;;;30.95;21.10;;;;;;;-145.18;100.00;60484.78;5043725;28;20488;-68
2022/05/24 06:01:31;;;;;;;29.10;20.70;;;;;;;-145.18;100.00;60484.78;5038212;28;20033;-68
2022/05/24 06:03:58;;;;;;;29.00;20.40;;;;;;;-145.18;100.00;60484.78;5042589;28;20178;-68
2022/05/24 06:06:28;;;;;;;29.92;20.40;;;;;;;-145.18;100.00;60484.78;5042905;28;20040;-68
2022/05/24 06:08:54;;;;;;;31.60;20.42;;;;;;;-145.18;100.00;60484.78;5048308;28;20037;-68
2022/05/24 06:11:19;;;;;;;33.33;21.35;;;;;;;-145.18;100.00;60484.78;5034026;28;20131;-68
2022/05/24 06:13:46;;;;;;;31.17;20.80;;;;;;;-145.18;100.00;60484.78;5039346;28;20033;-68
2022/05/24 06:16:13;;;;;;;32.50;20.90;;;;;;;-145.18;100.00;60484.78;5050310;28;20435;-68
2022/05/24 06:18:39;;;;;;;31.55;20.67;;;;;;;-145.18;100.00;60484.78;5050329;28;20052;-68
2022/05/24 06:21:05;;;;;;;28.75;20.70;;;;;;;-145.18;100.00;60484.78;5048931;28;20389;-68
2022/05/24 06:23:31;;;;;;;31.25;20.95;;;;;;;-145.18;100.00;60484.78;5050450;28;20060;-68
2022/05/24 06:25:57;;;;;;;28.92;19.67;;;;;;;-145.18;100.00;60484.78;5049964;28;20029;-68
2022/05/24 06:28:22;;;;;;;26.23;18.73;;;;;;;-145.18;100.00;60484.78;5048182;28;20499;-68
2022/05/24 06:30:47;;;;;;;25.95;17.83;;;;;;;-145.18;100.00;60484.78;5049082;28;20033;-67
2022/05/24 06:33:13;;;;;;;29.33;19.02;;;;;;;-145.18;100.00;60484.78;5047584;28;20112;-68
2022/05/24 06:35:40;;;;;;;23.88;17.13;;;;;;;-145.18;100.00;60484.78;5049000;28;20043;-68
2022/05/24 06:38:06;;;;;;;24.70;17.63;;;;;;;-145.18;100.00;60484.78;5050107;28;20028;-68
2022/05/24 06:40:32;;;;;;;23.02;15.98;;;;;;;-145.18;100.00;60484.78;5048653;28;20037;-68
2022/05/24 06:42:57;;;;;;;21.85;15.05;;;;;;;-145.18;100.00;60484.78;5049482;28;20082;-68
2022/05/24 06:45:22;;;;;;;21.77;15.13;;;;;;;-145.18;100.00;60484.78;5049398;28;20029;-68
2022/05/24 06:47:48;;;;;;;22.63;14.95;;;;;;;-145.18;100.00;60484.78;5049792;28;20029;-68
2022/05/24 06:50:15;;;;;;;22.00;14.45;;;;;;;-145.18;100.00;60484.78;5048969;28;20086;-69
2022/05/24 06:52:41;;;;;;;22.17;15.73;;;;;;;-145.18;100.00;60484.78;5048498;28;20064;-68
2022/05/24 06:55:08;;;;;;;21.38;14.73;;;;;;;-145.18;100.00;60484.78;5049109;28;20473;-68
2022/05/24 06:57:34;;;;;;;21.55;13.77;;;;;;;-145.18;100.00;60484.78;5047949;28;20489;-68
2022/05/24 07:02:43;;;;;;;21.77;15.20;;;;;;;-145.18;100.00;60484.78;5048030;28;20098;-67
2022/05/24 07:05:14;;;;;;;25.48;16.67;;;;;;;-145.18;100.00;60484.78;5049353;28;20053;-68
2022/05/24 07:07:41;;;;;;;20.52;14.93;;;;;;;-145.18;100.00;60484.78;5049626;28;20052;-68
2022/05/24 07:10:10;;;;;;;26.48;15.60;;;;;;;-145.18;100.00;60484.78;5048590;28;20036;-68
2022/05/24 07:12:36;;;;;;;21.40;15.23;;;;;;;-145.18;100.00;60484.78;5048324;28;20096;-68
2022/05/24 07:15:01;;;;;;;20.73;13.65;;;;;;;-145.18;100.00;60484.78;5049252;28;20033;-68
2022/05/24 07:17:27;;;;;;;18.00;11.57;;;;;;;-145.18;100.00;60484.78;5048901;28;20059;-68
2022/05/24 07:19:53;;;;;;;17.17;11.07;;;;;;;-145.18;100.00;60484.78;5049124;28;20025;-68
2022/05/24 07:22:19;;;;;;;17.75;9.73;;;;;;;-145.18;100.00;60484.78;5048360;28;20036;-68
2022/05/24 07:24:48;;;;;;;14.40;9.32;;;;;;;-145.18;100.00;60484.78;5048459;28;20136;-68
2022/05/24 07:27:16;;;;;;;18.08;9.43;;;;;;;-145.18;100.00;60484.78;5048775;28;20040;-68
2022/05/24 07:29:42;;;;;;;14.60;9.85;;;;;;;-145.18;100.00;60484.78;5042941;28;20032;-68
2022/05/24 07:32:07;;;;;;;14.95;9.55;;;;;;;-145.18;100.00;60484.78;5043771;28;20017;-68
2022/05/24 07:34:34;;;;;;;16.27;9.98;;;;;;;-145.18;100.00;60484.78;5045332;28;20056;-68
2022/05/24 07:37:01;;;;;;;14.23;8.20;;;;;;;-145.18;100.00;60484.78;5048793;28;20095;-68
2022/05/24 07:39:27;;;;;;;12.27;7.78;;;;;;;-145.18;100.00;60484.78;5048377;28;20025;-68
2022/05/24 07:47:25;;;;;;;15.33;7.70;;;;;;;-145.18;100.00;60484.78;5048510;28;20040;-68
2022/05/24 07:49:51;;;;;;;14.20;7.07;;;;;;;-145.18;100.00;60484.78;5047702;28;20560;-68
2022/05/24 07:52:16;;;;;;;13.05;7.38;;;;;;;-145.18;100.00;60484.78;5048291;28;20094;-68
2022/05/24 07:54:41;;;;;;;17.00;8.00;;;;;;;-145.18;100.00;60484.78;5047338;28;20033;-68
2022/05/24 07:57:10;;;;;;;15.70;7.80;;;;;;;-145.18;100.00;60484.78;5047815;28;20032;-68
2022/05/24 07:59:37;;;;;;;13.73;8.00;;;;;;;-145.18;100.00;60484.78;5047676;28;20021;-68
2022/05/24 08:02:04;;;;;;;12.73;7.30;;;;;;;-145.18;100.00;60484.78;5048424;28;20032;-68
2022/05/24 08:04:30;;;;;;;16.27;7.73;;;;;;;-145.18;100.00;60484.78;5046815;28;20080;-67
2022/05/24 08:06:55;;;;;;;12.83;7.53;;;;;;;-145.18;100.00;60484.78;5046489;28;20517;-68
2022/05/24 08:09:21;;;;;;;15.97;7.90;;;;;;;-145.18;100.00;60484.78;5047769;28;20093;-68
2022/05/24 08:11:46;;;;;;;16.33;8.90;;;;;;;-145.18;100.00;60484.78;5047799;28;20017;-68
2022/05/24 08:14:12;;;;;;;15.90;7.93;;;;;;;-145.18;100.00;60484.78;5048196;28;20059;-67
2022/05/24 08:16:37;;;;;;;14.03;8.67;;;;;;;-145.18;100.00;60484.78;5046725;28;20028;-68
2022/05/24 08:19:04;;;;;;;14.00;8.57;;;;;;;-145.18;100.00;60484.78;5048030;28;20020;-68
2022/05/24 08:21:30;;;;;;;16.37;9.80;;;;;;;-145.18;100.00;60484.78;5048099;28;20535;-68
2022/05/24 08:23:56;;;;;;;13.87;9.30;;;;;;;-145.18;100.00;60484.78;5048149;28;20377;-67
2022/05/24 08:26:22;;;;;;;15.33;9.60;;;;;;;-145.18;100.00;60484.78;5046412;28;20038;-68
2022/05/24 08:28:47;;;;;;;14.50;9.40;;;;;;;-145.18;100.00;60484.78;5047405;28;20133;-68
2022/05/24 08:31:14;;;;;;;17.03;10.10;;;;;;;-145.18;100.00;60484.78;5047775;28;20050;-68
2022/05/24 08:33:43;;;;;;;19.00;9.83;;;;;;;-145.18;100.00;60484.78;5044895;28;20118;-68
2022/05/24 08:36:09;;;;;;;17.47;9.80;;;;;;;-145.18;100.00;60484.78;5046206;28;20025;-68
2022/05/24 08:38:35;;;;;;;17.50;10.73;;;;;;;-145.18;100.00;60484.78;5047638;28;20033;-68
2022/05/24 08:41:04;;;;;;;16.97;9.93;;;;;;;-145.18;100.00;60484.78;5047115;28;20672;-68
2022/05/24 08:43:50;;;;;;;15.93;9.10;;;;;;;-145.18;100.00;60484.78;5047490;28;20036;-68
2022/05/24 08:49:20;;;;;;;19.00;11.20;;;;;;;-145.18;100.00;60484.78;5047167;28;20094;-68
2022/05/24 08:51:56;;;;;;;16.80;10.67;;;;;;;-145.18;100.00;60484.78;5047330;28;20028;-68
2022/05/24 08:54:28;;;;;;;17.57;10.20;;;;;;;-145.18;100.00;60484.78;5047000;28;20545;-67
2022/05/24 08:56:58;;;;;;;19.73;11.32;;;;;;;-145.18;100.00;60484.78;5046228;28;20028;-68
2022/05/24 08:59:28;;;;;;;18.73;11.63;;;;;;;-145.18;100.00;60484.78;5047501;28;20217;-68
2022/05/24 09:01:54;;;;;;;19.07;10.90;;;;;;;-145.18;100.00;60484.78;5047610;28;20029;-67
2022/05/24 09:04:19;;;;;;;20.70;11.13;;;;;;;-145.18;100.00;60484.78;5047451;28;20047;-68
2022/05/24 09:06:55;;;;;;;20.00;11.60;;;;;;;-145.18;100.00;60484.78;5044954;28;20767;-68
2022/05/24 09:09:51;;;;;;;22.93;12.23;;;;;;;-145.18;100.00;60484.78;5046076;28;20029;-68
2022/05/24 09:12:42;;;;;;;19.87;10.90;;;;;;;-145.18;100.00;60484.78;5047130;28;20044;-68
2022/05/24 09:15:26;;;;;;;17.38;11.95;;;;;;;-145.18;100.00;60484.78;5045757;28;20472;-68
2022/05/24 09:18:17;;;;;;;18.27;11.87;;;;;;;-145.18;100.00;60484.78;5046037;28;20468;-68
2022/05/24 09:20:44;;;;;;;17.17;10.43;;;;;;;-145.18;100.00;60484.78;5047119;28;20069;-68
2022/05/24 09:23:48;;;;;;;18.07;11.97;;;;;;;-145.18;100.00;60484.78;5046846;28;20692;-68
2022/05/24 09:26:24;;;;;;;18.17;11.63;;;;;;;-145.18;100.00;60484.78;5042253;28;20041;-69
2022/05/24 09:28:56;;;;;;;16.90;10.23;;;;;;;-145.18;100.00;60484.78;5041051;28;20060;-68
2022/05/24 09:31:33;;;;;;;20.02;10.68;;;;;;;-145.18;100.00;60484.78;5046473;28;20056;-68
2022/05/24 09:34:04;;;;;;;19.45;10.55;;;;;;;-145.18;100.00;60484.78;5041611;28;20432;-68
2022/05/24 09:36:39;;;;;;;16.42;10.27;;;;;;;-145.18;100.00;60484.78;5046520;28;20697;-67
2022/05/24 09:39:32;;;;;;;16.25;9.55;;;;;;;-145.18;100.00;60484.78;5045601;28;20029;-67
2022/05/24 09:42:04;;;;;;;11.95;8.60;;;;;;;-145.18;100.00;60484.78;5046595;28;20031;-68
2022/05/24 09:44:56;;;;;;;16.52;9.13;;;;;;;-145.18;100.00;60484.78;5044957;28;20017;-68
2022/05/24 09:47:21;;;;;;;;;;;;;;;-145.18;100.00;60484.78;5047313;28;20061;-68
2022/05/24 09:49:47;;;;;;;11.95;8.23;;;;;;;-145.18;100.00;60484.78;5045829;28;20428;-68
2022/05/24 09:52:14;;;;;;;11.15;8.00;;;;;;;-145.18;100.00;60484.78;5045261;28;20020;-68
2022/05/24 09:54:56;;;;;;;10.50;6.80;;;;;;;-145.18;100.00;60484.78;5046240;28;20029;-69
2022/05/24 09:57:29;;;;;;;14.05;7.75;;;;;;;-145.18;100.00;60484.78;5046775;28;20028;-69
2022/05/24 10:00:23;;;;;;;12.13;6.93;;;;;;;-145.18;100.00;60484.78;5045140;28;20477;-69
2022/05/24 10:03:03;;;;;;;10.90;6.03;;;;;;;-145.18;100.00;60484.78;5045893;28;20045;-69
2022/05/24 10:05:29;;;;;;;8.38;5.93;;;;;;;-145.18;100.00;60484.78;5046600;28;20406;-68
2022/05/24 10:08:04;;;;;;;10.18;6.10;;;;;;;-145.18;100.00;60484.78;5046308;28;20036;-68
2022/05/24 10:10:35;;;;;;;11.90;6.68;;;;;;;-145.18;100.00;60484.78;5045130;28;20032;-69
2022/05/24 10:13:09;;;;;;;12.40;7.60;;;;;;;-145.18;100.00;60484.78;5046749;28;20082;-68
2022/05/24 10:16:02;;;;;;;11.52;6.65;;;;;;;-145.18;100.00;60484.78;5046375;28;20040;-68
2022/05/24 10:18:34;;;;;;;11.38;6.85;;;;;;;-145.18;100.00;60484.78;5046693;28;20025;-68
2022/05/24 10:21:05;;;;;;;10.57;6.70;;;;;;;-145.18;100.00;60484.78;5044916;28;20040;-69
2022/05/24 10:23:52;;;;;;;11.93;7.00;;;;;;;-145.18;100.00;60484.78;5046411;28;20091;-68
2022/05/24 10:26:56;;;;;;;11.63;7.20;;;;;;;-145.18;100.00;60484.78;5046222;28;20036;-69
2022/05/24 10:29:44;;;;;;;9.20;5.55;;;;;;;-145.18;100.00;60484.78;5037643;28;20045;-68
2022/05/24 10:39:00;;;;;;;9.98;5.72;;;;;;;-145.18;100.00;60484.78;5049753;28;20123;-68
2022/05/24 10:41:27;;;;;;;9.55;6.18;;;;;;;-145.18;100.00;60484.78;5048789;28;20040;-69
2022/05/24 10:44:13;;;;;;;10.15;5.63;;;;;;;-145.18;100.00;60484.78;5048649;28;20132;-69
2022/05/24 10:46:43;;;;;;;9.73;5.50;;;;;;;-145.18;100.00;60484.78;5049526;28;20035;-68
2022/05/24 10:49:25;;;;;;;9.43;4.95;;;;;;;-145.18;100.00;60484.78;5049200;28;20029;-68
2022/05/24 10:51:55;;;;;;;9.23;5.70;;;;;;;-145.18;100.00;60484.78;5049636;28;20025;-69
2022/05/24 10:54:39;;;;;;;9.73;4.82;;;;;;;-145.18;100.00;60484.78;5048078;28;20112;-68
2022/05/24 10:57:28;;;;;;;10.27;4.57;;;;;;;-145.18;100.00;60484.78;5049635;28;20032;-68
2022/05/24 11:00:03;;;;;;;9.98;4.93;;;;;;;-145.18;100.00;60484.78;5049558;28;20028;-69
2022/05/24 11:02:50;;;;;;;10.02;5.20;;;;;;;-145.18;100.00;60484.78;5048741;28;20115;-68
2022/05/24 11:05:23;;;;;;;8.68;5.10;;;;;;;-145.18;100.00;60484.78;5049268;28;20033;-68
2022/05/24 11:08:05;;;;;;;6.88;4.50;;;;;;;-145.18;100.00;60484.78;5048588;28;20025;-68
2022/05/24 11:10:33;;;;;;;;;;;;;;;-145.18;100.00;60484.78;5049961;28;20083;-69
2022/05/24 11:13:08;;;;;;;9.57;4.50;;;;;;;-145.18;100.00;60484.78;5049339;28;19912;-69
2022/05/24 11:15:40;;;;;;;7.68;3.90;;;;;;;-145.18;100.00;60484.78;5049098;28;20036;-70
2022/05/24 11:18:18;;;;;;;7.13;3.85;;;;;;;-145.18;100.00;60484.78;5048918;28;20415;-70
2022/05/24 11:20:55;;;;;;;7.45;4.05;;;;;;;-145.18;100.00;60484.78;5049141;28;20021;-70
2022/05/24 11:23:27;;;;;;;4.88;2.67;;;;;;;-145.18;100.00;60484.78;5043747;28;20139;-71
2022/05/24 11:26:24;;;;;;;5.60;2.53;;;;;;;-145.18;100.00;60484.78;5048237;28;20075;-70
2022/05/24 11:28:59;;;;;;;7.15;3.03;;;;;;;-145.18;100.00;60484.78;5045897;28;20036;-70
2022/05/24 11:31:41;;;;;;;5.07;2.35;;;;;;;-145.18;100.00;60484.78;5048760;28;20067;-69
2022/05/24 11:34:17;;;;;;;5.80;2.80;;;;;;;-145.18;100.00;60484.78;5043690;28;20120;-70
2022/05/24 11:36:48;;;;;;;5.28;2.60;;;;;;;-145.18;100.00;60484.78;5048410;28;20029;-70
2022/05/24 11:39:23;;;;;;;7.88;3.00;;;;;;;-145.18;100.00;60484.78;5048366;28;20041;-70
2022/05/24 11:42:09;;;;;;;7.95;2.80;;;;;;;-145.18;100.00;60484.78;5048954;28;20103;-69
2022/05/24 11:44:37;;;;;;;5.95;3.00;;;;;;;-145.18;100.00;60484.78;5047254;28;20025;-69
2022/05/24 11:47:03;;;;;;;5.90;3.13;;;;;;;-145.18;100.00;60484.78;5048128;28;20036;-69
2022/05/24 11:49:29;;;;;;;8.98;3.03;;;;;;;-145.18;100.00;60484.78;5042523;28;20720;-69